FIMR METAR and TAF | Updated Today

FIMR METAR

Sir Charles Gaetan Duval Airport

Sir Charles Gaetan Duval Airport (FIMR) hasn't published a METAR.
We found the following current weather conditions for Plaine Corail from other sources.

Sir Charles Gaetan Duval Airport (FIMR) METAR

  • Weather conditions right now at FIMR:
  • Present conditions: Clear
  • Clouds: Clear sky
  • Cloud cover: 0%
  • Wind: 112 at 15kts
  • Temperature: 25.6 celsius
  • Feels like: 26 celsius
  • Pressure: 1017mb
  • Humidity: 69%


Useful to know...

FIMR TAF

Sir Charles Gaetan Duval Airport

TAF FIMR 060510Z 0606/0700 09018G32KT 9999 SCT017 TEMPO 0606/0609 7000 -SHRA BKN016
Observation time: 2:38 hr. ago
Need help? Read our tutorial on how to read TAFs or read the parsed version below.

Parsed version of TAF for Sir Charles Gaetan Duval Airport (FIMR)

  • From 06 December at 06:00 UTC, to day 07 of the month at 00:00 UTC
  • Clouds: Scattered at 518 meters
  • Visibility: Greater than 10 km
  • Wind: 90 degrees at 18
  • Expected to arise temporarily, from 06 December at 06:00 UTC, to day 06 of the month at 09:00 UTC
  • Clouds: Broken sky at 488 meters
  • Visibility: 7000 meters
  • Other: Light showers of rain

Airports near FIMR

No airports found within 100nm radius.